• Join FlightAware (Why Join?)
  • Login
  • US Flag 
05:25AM EST


 

Airport Tracker/Info


-or-


 

Live Flight TrackerFlight Track Log ✈ N306UP ✈ 09-Apr-2013 ✈ KPHX - KONT

Flight Track Log - Related Links

Times and Time Zones

All times are in EDT time to prevent confusion due to time zone crossing. See the N306UP flight status page for this flight to view local times or setup timezone preferences in your user account.

Time Position Orientation Groundspeed Altitude Reporting Facility
EDT Latitude Longitude Course Direction KTS MPH feet Rate Location/Type
11:45PM 33.4270 -112.0380 246° West 175 201 3,000  Level FlightAware
11:46PM 33.4170 -112.0670 248° West 213 245 4,000 2,400 Climbing FlightAware
11:46PM 33.4070 -112.0970 248° West 238 274 5,200 2,820 Climbing FlightAware
11:47PM 33.3950 -112.1330 248° West 261 300 6,600 3,360 Climbing FlightAware
11:47PM 33.3830 -112.1690 248° West 266 306 8,300 3,660 Climbing FlightAware
11:48PM 33.3640 -112.2320 250° West 279 321 10,900 2,880 Climbing FlightAware
11:48PM 33.3740 -112.2890 282° West 326 375 12,200 3,360 Climbing FlightAware
11:49PM 33.4030 -112.3780 291° West 346 398 15,700 4,320 Climbing FlightAware
11:50PM 33.4210 -112.4500 287° West 352 405 18,700 3,780 Climbing FlightAware
11:51PM 33.4300 -112.5340 277° West 371 427 21,100 3,480 Climbing FlightAware
11:51PM 33.4380 -112.6250 276° West 384 442 23,700 3,300 Climbing FlightAware
11:52PM 33.4450 -112.7100 276° West 401 461 25,500 2,820 Climbing FlightAware
11:53PM 33.4530 -112.8100 276° West 406 467 27,700 2,700 Climbing FlightAware
11:53PM 33.4670 -112.8960 281° West 413 475 29,400 1,800 Climbing FlightAware
11:54PM 33.4830 -112.9760 284° West 427 491 30,000 420 Climbing FlightAware
11:55PM 33.5060 -113.0940 283° West 425 489 30,000  Level FlightAware
11:56PM 33.5220 -113.1800 283° West 419 482 30,000  Level FlightAware
11:56PM 33.5400 -113.2760 283° West 420 483 30,000  Level FlightAware
11:57PM 33.5570 -113.3640 283° West 418 481 30,000  Level FlightAware
11:58PM 33.5730 -113.4560 282° West 418 481 30,000  Level FlightAware
11:58PM 33.5870 -113.5330 282° West 418 481 30,000  Level FlightAware
11:59PM 33.6000 -113.6100 281° West 418 481 30,000  Level FlightAware
12:00AM 33.6140 -113.6870 282° West 418 481 30,000  Level FlightAware
12:00AM 33.6310 -113.7840 282° West 418 481 30,000  Level FlightAware
12:01AM 33.6636 -113.9375 282° West 426 490 30,000  Level Albuquerque Center
12:02AM 33.6892 -114.0764 283° West 428 493 30,000  Level Albuquerque Center
12:03AM 33.7147 -114.2156 282° West 428 493 30,000  Level Albuquerque Center
12:04AM 33.7381 -114.3508 282° West 427 491 30,000  Level Albuquerque Center
12:05AM 33.7681 -114.5161 282° West 424 488 30,000  Level Albuquerque Center
12:06AM 33.7825 -114.6711 276° West 426 490 30,000 -60 Level Los Angeles Center
12:08AM 33.7900 -114.8125 274° West 427 491 29,900  Descending Los Angeles Center
12:09AM 33.7975 -114.9539 274° West 425 489 30,000  Climbing Los Angeles Center
12:14AM 33.8400 -115.7710 274° West 412 474 30,000 -60 Level FlightAware
12:15AM 33.8440 -115.8580 273° West 409 471 29,900 -540 Descending FlightAware
12:16AM 33.8500 -115.9840 273° West 390 449 29,200 -540 Descending FlightAware
12:16AM 33.8530 -116.0640 273° West 388 447 29,100 -120 Descending FlightAware
12:17AM 33.8560 -116.1380 273° West 388 447 29,100  Level FlightAware
12:18AM 33.8590 -116.2110 273° West 388 447 29,100  Level FlightAware
12:19AM 33.8630 -116.3030 273° West 388 447 29,100 -4,980 Level FlightAware
12:19AM 33.8700 -116.4190 274° West 372 428 21,700 -6,480 Descending FlightAware
12:20AM 33.8740 -116.5130 273° West 361 415 20,000 -2,220 Descending FlightAware
12:21AM 33.8770 -116.5820 273° West 354 407 18,800 -2,160 Descending FlightAware
12:21AM 33.8820 -116.6780 274° West 352 405 17,000 -2,160 Descending FlightAware
12:22AM 33.8850 -116.7550 273° West 354 407 15,600 -2,100 Descending FlightAware
12:23AM 33.8890 -116.8350 273° West 347 399 14,200 -1,380 Descending FlightAware
12:24AM 33.8970 -116.9200 276° West 319 367 13,700 -1,200 Descending FlightAware
12:24AM 33.9170 -116.9860 290° West 299 344 12,500 -1,740 Descending FlightAware
12:25AM 33.9400 -117.0490 294° West 267 307 11,300 -2,160 Descending FlightAware
12:26AM 33.9600 -117.1020 294° West 273 314 9,500 -2,640 Descending FlightAware
12:26AM 33.9730 -117.1390 293° West 273 314 8,500 -2,220 Descending FlightAware
12:27AM 33.9890 -117.1800 295° West 267 307 7,500 -1,740 Descending FlightAware
12:27AM 34.0040 -117.2220 293° West 251 289 6,800 -1,380 Descending FlightAware
12:27AM 34.0100 -117.2380 294° West 240 276 6,500 -1,500 Descending FlightAware
12:28AM 34.0210 -117.2680 294° West 228 262 5,800 -1,860 Descending FlightAware
12:28AM 34.0340 -117.3050 293° West 227 261 4,800 -1,440 Descending FlightAware
12:29AM 34.0440 -117.3310 295° West 213 245 4,500 -600 Descending FlightAware
12:29AM 34.0500 -117.3460 296° West 198 228 4,400 -420 Descending FlightAware
12:29AM 34.0550 -117.3780 281° West 183 211 4,200 -660 Descending FlightAware
12:30AM 34.0550 -117.4010 270° West 182 209 3,800 -960 Descending FlightAware
12:31AM 34.0550 -117.4600 270° West 172 198 2,900 -900 Descending FlightAware
12:31AM 34.0550 -117.4790 270° West 155 178 2,600 -540 Descending FlightAware
12:32AM 34.0550 -117.5100 270° West 155 178 2,400 -780 Descending FlightAware
12:33AM 34.0564 -117.5644 270° West 146 168 1,200 -600 Descending Los Angeles Center
12:34AM 34.0556 -117.6081 269° West 143 165 1,100 -120 Descending Los Angeles Center
12:36AM 34.0560 -117.6012 86° East  Level Estimated
12:43AM 34.0560 -117.6012 270° West  Level Estimated